sensor_id;sensor_type;location;lat;lon;timestamp;P1;durP1;ratioP1;P2;durP2;ratioP2
12687;SDS011;6408;59.388;17.798;2022-12-29T00:00:21;23.27;;;2.60;;
12687;SDS011;6408;59.388;17.798;2022-12-29T00:02:51;14.23;;;2.70;;
12687;SDS011;6408;59.388;17.798;2022-12-29T00:05:18;23.77;;;2.90;;
12687;SDS011;6408;59.388;17.798;2022-12-29T00:07:46;21.27;;;3.10;;
12687;SDS011;6408;59.388;17.798;2022-12-29T00:10:13;22.17;;;3.53;;
12687;SDS011;6408;59.388;17.798;2022-12-29T00:12:41;29.63;;;2.90;;
12687;SDS011;6408;59.388;17.798;2022-12-29T00:15:25;20.50;;;3.33;;
12687;SDS011;6408;59.388;17.798;2022-12-29T00:18:07;19.63;;;2.60;;
12687;SDS011;6408;59.388;17.798;2022-12-29T00:20:35;22.90;;;2.80;;
12687;SDS011;6408;59.388;17.798;2022-12-29T00:23:20;22.33;;;2.53;;
12687;SDS011;6408;59.388;17.798;2022-12-29T00:26:08;12.17;;;2.77;;
12687;SDS011;6408;59.388;17.798;2022-12-29T00:28:57;20.43;;;2.90;;
12687;SDS011;6408;59.388;17.798;2022-12-29T00:31:41;13.77;;;2.77;;
12687;SDS011;6408;59.388;17.798;2022-12-29T00:34:27;12.47;;;2.20;;
12687;SDS011;6408;59.388;17.798;2022-12-29T00:37:12;18.47;;;2.57;;
12687;SDS011;6408;59.388;17.798;2022-12-29T00:39:39;10.43;;;2.33;;
12687;SDS011;6408;59.388;17.798;2022-12-29T00:42:24;12.33;;;2.47;;
12687;SDS011;6408;59.388;17.798;2022-12-29T00:45:08;9.90;;;2.30;;
12687;SDS011;6408;59.388;17.798;2022-12-29T00:47:36;14.87;;;2.40;;
12687;SDS011;6408;59.388;17.798;2022-12-29T00:50:05;13.97;;;2.27;;
12687;SDS011;6408;59.388;17.798;2022-12-29T00:52:31;13.73;;;2.70;;
12687;SDS011;6408;59.388;17.798;2022-12-29T00:54:59;7.90;;;2.27;;
12687;SDS011;6408;59.388;17.798;2022-12-29T00:57:26;16.07;;;2.20;;
12687;SDS011;6408;59.388;17.798;2022-12-29T00:59:54;14.33;;;2.00;;
12687;SDS011;6408;59.388;17.798;2022-12-29T01:02:21;7.17;;;1.90;;
12687;SDS011;6408;59.388;17.798;2022-12-29T01:04:49;10.73;;;2.20;;
12687;SDS011;6408;59.388;17.798;2022-12-29T01:07:18;10.00;;;2.20;;
12687;SDS011;6408;59.388;17.798;2022-12-29T01:09:46;8.40;;;2.57;;
12687;SDS011;6408;59.388;17.798;2022-12-29T01:12:32;13.30;;;2.43;;
12687;SDS011;6408;59.388;17.798;2022-12-29T01:15:11;5.90;;;1.83;;
12687;SDS011;6408;59.388;17.798;2022-12-29T01:17:40;7.50;;;2.30;;
12687;SDS011;6408;59.388;17.798;2022-12-29T01:20:08;7.90;;;3.03;;
12687;SDS011;6408;59.388;17.798;2022-12-29T01:22:38;10.97;;;2.73;;
12687;SDS011;6408;59.388;17.798;2022-12-29T01:25:07;11.87;;;2.63;;
12687;SDS011;6408;59.388;17.798;2022-12-29T01:27:35;21.83;;;3.47;;
12687;SDS011;6408;59.388;17.798;2022-12-29T01:30:03;15.43;;;3.23;;
12687;SDS011;6408;59.388;17.798;2022-12-29T01:32:31;10.60;;;3.57;;
12687;SDS011;6408;59.388;17.798;2022-12-29T01:34:59;12.63;;;3.27;;
12687;SDS011;6408;59.388;17.798;2022-12-29T01:37:26;19.93;;;3.10;;
12687;SDS011;6408;59.388;17.798;2022-12-29T01:39:56;11.63;;;3.73;;
12687;SDS011;6408;59.388;17.798;2022-12-29T01:42:24;12.90;;;3.30;;
12687;SDS011;6408;59.388;17.798;2022-12-29T01:44:54;9.00;;;3.47;;
12687;SDS011;6408;59.388;17.798;2022-12-29T01:47:25;17.40;;;3.70;;
12687;SDS011;6408;59.388;17.798;2022-12-29T01:49:56;7.30;;;4.00;;
12687;SDS011;6408;59.388;17.798;2022-12-29T01:52:28;9.70;;;3.47;;
12687;SDS011;6408;59.388;17.798;2022-12-29T01:55:02;9.60;;;3.73;;
12687;SDS011;6408;59.388;17.798;2022-12-29T01:57:32;10.23;;;3.80;;
12687;SDS011;6408;59.388;17.798;2022-12-29T02:00:04;9.50;;;4.30;;
12687;SDS011;6408;59.388;17.798;2022-12-29T02:02:35;8.43;;;4.07;;
12687;SDS011;6408;59.388;17.798;2022-12-29T02:05:04;9.53;;;3.73;;
12687;SDS011;6408;59.388;17.798;2022-12-29T02:07:36;6.77;;;4.17;;
12687;SDS011;6408;59.388;17.798;2022-12-29T02:10:07;8.30;;;4.20;;
12687;SDS011;6408;59.388;17.798;2022-12-29T02:12:35;13.57;;;4.20;;
12687;SDS011;6408;59.388;17.798;2022-12-29T02:15:02;5.67;;;3.60;;
12687;SDS011;6408;59.388;17.798;2022-12-29T02:17:35;16.93;;;4.60;;
12687;SDS011;6408;59.388;17.798;2022-12-29T02:20:26;11.10;;;4.43;;
12687;SDS011;6408;59.388;17.798;2022-12-29T02:23:30;10.43;;;4.10;;
12687;SDS011;6408;59.388;17.798;2022-12-29T02:26:18;15.67;;;5.00;;
12687;SDS011;6408;59.388;17.798;2022-12-29T02:32:00;15.70;;;4.47;;
12687;SDS011;6408;59.388;17.798;2022-12-29T02:34:35;10.17;;;4.60;;
12687;SDS011;6408;59.388;17.798;2022-12-29T02:37:11;9.03;;;4.93;;
12687;SDS011;6408;59.388;17.798;2022-12-29T02:39:48;13.03;;;4.63;;
12687;SDS011;6408;59.388;17.798;2022-12-29T02:42:21;10.33;;;5.03;;
12687;SDS011;6408;59.388;17.798;2022-12-29T02:44:57;10.30;;;4.93;;
12687;SDS011;6408;59.388;17.798;2022-12-29T02:47:34;9.27;;;4.93;;
12687;SDS011;6408;59.388;17.798;2022-12-29T02:50:03;9.63;;;4.73;;
12687;SDS011;6408;59.388;17.798;2022-12-29T02:52:35;9.63;;;5.40;;
12687;SDS011;6408;59.388;17.798;2022-12-29T02:55:07;9.10;;;4.90;;
12687;SDS011;6408;59.388;17.798;2022-12-29T02:57:36;8.23;;;4.67;;
12687;SDS011;6408;59.388;17.798;2022-12-29T03:00:05;10.63;;;5.47;;
12687;SDS011;6408;59.388;17.798;2022-12-29T03:05:45;12.00;;;5.47;;
12687;SDS011;6408;59.388;17.798;2022-12-29T03:08:26;8.80;;;5.40;;
12687;SDS011;6408;59.388;17.798;2022-12-29T03:10:59;10.13;;;5.10;;
12687;SDS011;6408;59.388;17.798;2022-12-29T03:13:31;7.67;;;5.27;;
12687;SDS011;6408;59.388;17.798;2022-12-29T03:16:20;8.77;;;4.57;;
12687;SDS011;6408;59.388;17.798;2022-12-29T03:18:54;10.10;;;5.37;;
12687;SDS011;6408;59.388;17.798;2022-12-29T03:21:27;7.93;;;4.83;;
12687;SDS011;6408;59.388;17.798;2022-12-29T03:24:29;9.40;;;5.20;;
12687;SDS011;6408;59.388;17.798;2022-12-29T03:27:00;7.90;;;4.93;;
12687;SDS011;6408;59.388;17.798;2022-12-29T03:29:32;9.37;;;4.70;;
12687;SDS011;6408;59.388;17.798;2022-12-29T03:32:06;8.63;;;4.40;;
12687;SDS011;6408;59.388;17.798;2022-12-29T03:34:35;8.87;;;4.87;;
12687;SDS011;6408;59.388;17.798;2022-12-29T03:37:06;8.50;;;4.50;;
12687;SDS011;6408;59.388;17.798;2022-12-29T03:39:37;10.67;;;5.23;;
12687;SDS011;6408;59.388;17.798;2022-12-29T03:42:06;8.10;;;5.23;;
12687;SDS011;6408;59.388;17.798;2022-12-29T03:44:38;11.97;;;5.23;;
12687;SDS011;6408;59.388;17.798;2022-12-29T03:47:07;9.50;;;5.53;;
12687;SDS011;6408;59.388;17.798;2022-12-29T03:49:37;9.00;;;4.90;;
12687;SDS011;6408;59.388;17.798;2022-12-29T03:52:06;11.37;;;5.87;;
12687;SDS011;6408;59.388;17.798;2022-12-29T03:54:34;8.90;;;4.87;;
12687;SDS011;6408;59.388;17.798;2022-12-29T03:57:01;8.70;;;4.80;;
12687;SDS011;6408;59.388;17.798;2022-12-29T03:59:29;9.57;;;4.53;;
12687;SDS011;6408;59.388;17.798;2022-12-29T04:01:56;8.30;;;5.00;;
12687;SDS011;6408;59.388;17.798;2022-12-29T04:04:24;13.30;;;5.33;;
12687;SDS011;6408;59.388;17.798;2022-12-29T04:06:51;9.60;;;4.87;;
12687;SDS011;6408;59.388;17.798;2022-12-29T04:09:21;11.20;;;5.60;;
12687;SDS011;6408;59.388;17.798;2022-12-29T04:11:48;10.10;;;5.57;;
12687;SDS011;6408;59.388;17.798;2022-12-29T04:14:16;10.60;;;5.40;;
12687;SDS011;6408;59.388;17.798;2022-12-29T04:16:43;10.03;;;5.07;;
12687;SDS011;6408;59.388;17.798;2022-12-29T04:19:12;8.43;;;4.67;;
12687;SDS011;6408;59.388;17.798;2022-12-29T04:21:39;7.70;;;4.73;;
12687;SDS011;6408;59.388;17.798;2022-12-29T04:24:05;8.53;;;5.23;;
12687;SDS011;6408;59.388;17.798;2022-12-29T04:26:36;7.33;;;4.80;;
12687;SDS011;6408;59.388;17.798;2022-12-29T04:29:03;8.53;;;4.70;;
12687;SDS011;6408;59.388;17.798;2022-12-29T04:31:31;8.23;;;4.57;;
12687;SDS011;6408;59.388;17.798;2022-12-29T04:33:58;8.47;;;4.53;;
12687;SDS011;6408;59.388;17.798;2022-12-29T04:36:26;9.90;;;5.13;;
12687;SDS011;6408;59.388;17.798;2022-12-29T04:38:54;6.43;;;4.47;;
12687;SDS011;6408;59.388;17.798;2022-12-29T04:41:21;9.57;;;4.57;;
12687;SDS011;6408;59.388;17.798;2022-12-29T04:43:51;9.00;;;4.60;;
12687;SDS011;6408;59.388;17.798;2022-12-29T04:46:19;7.93;;;4.47;;
12687;SDS011;6408;59.388;17.798;2022-12-29T04:48:46;8.13;;;4.37;;
12687;SDS011;6408;59.388;17.798;2022-12-29T04:51:14;9.03;;;4.93;;
12687;SDS011;6408;59.388;17.798;2022-12-29T04:53:41;6.00;;;4.50;;
12687;SDS011;6408;59.388;17.798;2022-12-29T04:56:09;7.57;;;4.13;;
12687;SDS011;6408;59.388;17.798;2022-12-29T04:58:36;9.03;;;4.73;;
12687;SDS011;6408;59.388;17.798;2022-12-29T05:01:06;9.97;;;4.67;;
12687;SDS011;6408;59.388;17.798;2022-12-29T05:03:33;6.50;;;4.70;;
12687;SDS011;6408;59.388;17.798;2022-12-29T05:06:01;7.67;;;4.50;;
12687;SDS011;6408;59.388;17.798;2022-12-29T05:08:28;5.47;;;3.87;;
12687;SDS011;6408;59.388;17.798;2022-12-29T05:10:56;7.27;;;3.83;;
12687;SDS011;6408;59.388;17.798;2022-12-29T05:13:24;5.53;;;4.07;;
12687;SDS011;6408;59.388;17.798;2022-12-29T05:15:52;5.73;;;4.13;;
12687;SDS011;6408;59.388;17.798;2022-12-29T05:18:22;7.23;;;4.00;;
12687;SDS011;6408;59.388;17.798;2022-12-29T05:20:49;5.17;;;4.00;;
12687;SDS011;6408;59.388;17.798;2022-12-29T05:23:17;6.77;;;3.90;;
12687;SDS011;6408;59.388;17.798;2022-12-29T05:25:44;5.63;;;4.40;;
12687;SDS011;6408;59.388;17.798;2022-12-29T05:28:12;8.47;;;4.40;;
12687;SDS011;6408;59.388;17.798;2022-12-29T05:30:40;7.47;;;4.03;;
12687;SDS011;6408;59.388;17.798;2022-12-29T05:33:07;10.07;;;4.73;;
12687;SDS011;6408;59.388;17.798;2022-12-29T05:35:38;5.87;;;3.73;;
12687;SDS011;6408;59.388;17.798;2022-12-29T05:38:05;4.93;;;3.70;;
12687;SDS011;6408;59.388;17.798;2022-12-29T05:40:33;8.20;;;4.00;;
12687;SDS011;6408;59.388;17.798;2022-12-29T05:43:00;6.90;;;4.20;;
12687;SDS011;6408;59.388;17.798;2022-12-29T05:45:28;6.03;;;3.63;;
12687;SDS011;6408;59.388;17.798;2022-12-29T05:47:55;4.43;;;3.67;;
12687;SDS011;6408;59.388;17.798;2022-12-29T05:50:23;6.93;;;3.53;;
12687;SDS011;6408;59.388;17.798;2022-12-29T05:52:52;6.77;;;3.53;;
12687;SDS011;6408;59.388;17.798;2022-12-29T05:55:20;4.37;;;3.13;;
12687;SDS011;6408;59.388;17.798;2022-12-29T05:57:47;5.97;;;3.30;;
12687;SDS011;6408;59.388;17.798;2022-12-29T06:00:15;5.10;;;3.30;;
12687;SDS011;6408;59.388;17.798;2022-12-29T06:02:43;5.50;;;3.77;;
12687;SDS011;6408;59.388;17.798;2022-12-29T06:05:10;4.50;;;3.67;;
12687;SDS011;6408;59.388;17.798;2022-12-29T06:07:38;5.70;;;3.90;;
12687;SDS011;6408;59.388;17.798;2022-12-29T06:10:08;7.50;;;3.93;;
12687;SDS011;6408;59.388;17.798;2022-12-29T06:12:35;4.63;;;3.57;;
12687;SDS011;6408;59.388;17.798;2022-12-29T06:15:03;4.93;;;3.33;;
12687;SDS011;6408;59.388;17.798;2022-12-29T06:17:32;6.73;;;3.43;;
12687;SDS011;6408;59.388;17.798;2022-12-29T06:19:59;4.77;;;3.80;;
12687;SDS011;6408;59.388;17.798;2022-12-29T06:22:27;4.40;;;3.43;;
12687;SDS011;6408;59.388;17.798;2022-12-29T06:24:54;4.83;;;3.43;;
12687;SDS011;6408;59.388;17.798;2022-12-29T06:27:23;4.40;;;3.67;;
12687;SDS011;6408;59.388;17.798;2022-12-29T06:29:51;6.40;;;3.30;;
12687;SDS011;6408;59.388;17.798;2022-12-29T06:32:19;10.57;;;3.67;;
12687;SDS011;6408;59.388;17.798;2022-12-29T06:34:46;8.13;;;4.80;;
12687;SDS011;6408;59.388;17.798;2022-12-29T06:37:14;17.00;;;4.63;;
12687;SDS011;6408;59.388;17.798;2022-12-29T06:39:41;8.80;;;5.80;;
12687;SDS011;6408;59.388;17.798;2022-12-29T06:42:09;13.03;;;4.60;;
12687;SDS011;6408;59.388;17.798;2022-12-29T06:44:38;13.43;;;4.07;;
12687;SDS011;6408;59.388;17.798;2022-12-29T06:47:06;7.07;;;3.63;;
12687;SDS011;6408;59.388;17.798;2022-12-29T06:49:33;6.53;;;4.20;;
12687;SDS011;6408;59.388;17.798;2022-12-29T06:52:01;15.07;;;4.77;;
12687;SDS011;6408;59.388;17.798;2022-12-29T06:54:29;21.40;;;4.40;;
12687;SDS011;6408;59.388;17.798;2022-12-29T06:56:56;14.87;;;4.23;;
12687;SDS011;6408;59.388;17.798;2022-12-29T06:59:24;15.87;;;5.03;;
12687;SDS011;6408;59.388;17.798;2022-12-29T07:01:54;17.57;;;5.17;;
12687;SDS011;6408;59.388;17.798;2022-12-29T07:04:21;15.63;;;4.77;;
12687;SDS011;6408;59.388;17.798;2022-12-29T07:06:49;20.50;;;4.93;;
12687;SDS011;6408;59.388;17.798;2022-12-29T07:09:16;13.40;;;4.90;;
12687;SDS011;6408;59.388;17.798;2022-12-29T07:11:44;12.47;;;4.60;;
12687;SDS011;6408;59.388;17.798;2022-12-29T07:14:11;12.23;;;4.80;;
12687;SDS011;6408;59.388;17.798;2022-12-29T07:16:39;20.60;;;5.70;;
12687;SDS011;6408;59.388;17.798;2022-12-29T07:19:08;36.60;;;7.33;;
12687;SDS011;6408;59.388;17.798;2022-12-29T07:21:35;14.63;;;5.53;;
12687;SDS011;6408;59.388;17.798;2022-12-29T07:24:03;21.90;;;5.50;;
12687;SDS011;6408;59.388;17.798;2022-12-29T07:26:31;13.93;;;4.90;;
12687;SDS011;6408;59.388;17.798;2022-12-29T07:28:59;30.93;;;5.90;;
12687;SDS011;6408;59.388;17.798;2022-12-29T07:31:27;19.77;;;5.57;;
12687;SDS011;6408;59.388;17.798;2022-12-29T07:33:55;45.33;;;6.60;;
12687;SDS011;6408;59.388;17.798;2022-12-29T07:36:24;40.93;;;7.43;;
12687;SDS011;6408;59.388;17.798;2022-12-29T07:38:52;45.70;;;7.47;;
12687;SDS011;6408;59.388;17.798;2022-12-29T07:41:19;30.67;;;7.40;;
12687;SDS011;6408;59.388;17.798;2022-12-29T07:43:47;45.30;;;7.13;;
12687;SDS011;6408;59.388;17.798;2022-12-29T07:46:14;45.83;;;6.53;;
12687;SDS011;6408;59.388;17.798;2022-12-29T07:48:42;28.37;;;6.27;;
12687;SDS011;6408;59.388;17.798;2022-12-29T07:51:10;20.53;;;5.43;;
12687;SDS011;6408;59.388;17.798;2022-12-29T07:53:39;35.53;;;7.03;;
12687;SDS011;6408;59.388;17.798;2022-12-29T07:56:06;21.90;;;5.53;;
12687;SDS011;6408;59.388;17.798;2022-12-29T07:58:34;13.90;;;6.30;;
12687;SDS011;6408;59.388;17.798;2022-12-29T08:01:01;26.60;;;5.97;;
12687;SDS011;6408;59.388;17.798;2022-12-29T08:03:30;12.50;;;4.97;;
12687;SDS011;6408;59.388;17.798;2022-12-29T08:05:58;7.97;;;4.63;;
12687;SDS011;6408;59.388;17.798;2022-12-29T08:08:25;9.53;;;5.50;;
12687;SDS011;6408;59.388;17.798;2022-12-29T08:10:55;11.43;;;6.13;;
12687;SDS011;6408;59.388;17.798;2022-12-29T08:13:22;10.37;;;4.43;;
12687;SDS011;6408;59.388;17.798;2022-12-29T08:15:50;8.10;;;5.00;;
12687;SDS011;6408;59.388;17.798;2022-12-29T08:18:17;7.03;;;4.67;;
12687;SDS011;6408;59.388;17.798;2022-12-29T08:20:45;11.00;;;4.63;;
12687;SDS011;6408;59.388;17.798;2022-12-29T08:23:12;6.00;;;4.17;;
12687;SDS011;6408;59.388;17.798;2022-12-29T08:25:40;5.90;;;4.20;;
12687;SDS011;6408;59.388;17.798;2022-12-29T08:28:09;9.53;;;4.63;;
12687;SDS011;6408;59.388;17.798;2022-12-29T08:30:37;8.67;;;5.10;;
12687;SDS011;6408;59.388;17.798;2022-12-29T08:33:04;7.13;;;3.70;;
12687;SDS011;6408;59.388;17.798;2022-12-29T08:35:31;7.03;;;4.67;;
12687;SDS011;6408;59.388;17.798;2022-12-29T08:37:59;9.77;;;4.73;;
12687;SDS011;6408;59.388;17.798;2022-12-29T08:40:26;7.37;;;3.97;;
12687;SDS011;6408;59.388;17.798;2022-12-29T08:42:54;5.83;;;3.60;;
12687;SDS011;6408;59.388;17.798;2022-12-29T08:45:23;7.87;;;3.80;;
12687;SDS011;6408;59.388;17.798;2022-12-29T08:47:50;5.17;;;3.43;;
12687;SDS011;6408;59.388;17.798;2022-12-29T08:50:18;8.20;;;3.40;;
12687;SDS011;6408;59.388;17.798;2022-12-29T08:52:45;5.00;;;3.77;;
12687;SDS011;6408;59.388;17.798;2022-12-29T08:55:13;4.83;;;3.13;;
12687;SDS011;6408;59.388;17.798;2022-12-29T08:57:40;3.63;;;2.80;;
12687;SDS011;6408;59.388;17.798;2022-12-29T09:00:08;4.90;;;2.80;;
12687;SDS011;6408;59.388;17.798;2022-12-29T09:02:39;3.90;;;2.77;;
12687;SDS011;6408;59.388;17.798;2022-12-29T09:05:06;3.07;;;2.63;;
12687;SDS011;6408;59.388;17.798;2022-12-29T09:07:34;4.90;;;2.70;;
12687;SDS011;6408;59.388;17.798;2022-12-29T09:10:02;2.90;;;2.30;;
12687;SDS011;6408;59.388;17.798;2022-12-29T09:12:30;3.10;;;2.40;;
12687;SDS011;6408;59.388;17.798;2022-12-29T09:14:57;4.50;;;2.40;;
12687;SDS011;6408;59.388;17.798;2022-12-29T09:17:25;2.87;;;2.37;;
12687;SDS011;6408;59.388;17.798;2022-12-29T09:20:13;2.40;;;1.70;;
12687;SDS011;6408;59.388;17.798;2022-12-29T09:22:41;2.47;;;1.70;;
12687;SDS011;6408;59.388;17.798;2022-12-29T09:25:09;1.90;;;1.67;;
12687;SDS011;6408;59.388;17.798;2022-12-29T09:27:37;2.43;;;1.70;;
12687;SDS011;6408;59.388;17.798;2022-12-29T09:30:06;2.13;;;1.67;;
12687;SDS011;6408;59.388;17.798;2022-12-29T09:32:36;2.00;;;1.50;;
12687;SDS011;6408;59.388;17.798;2022-12-29T09:35:04;2.13;;;1.40;;
12687;SDS011;6408;59.388;17.798;2022-12-29T09:37:33;3.10;;;1.47;;
12687;SDS011;6408;59.388;17.798;2022-12-29T09:40:00;2.97;;;1.47;;
12687;SDS011;6408;59.388;17.798;2022-12-29T09:42:29;1.30;;;1.20;;
12687;SDS011;6408;59.388;17.798;2022-12-29T09:45:08;3.30;;;1.30;;
12687;SDS011;6408;59.388;17.798;2022-12-29T09:47:40;2.30;;;1.13;;
12687;SDS011;6408;59.388;17.798;2022-12-29T09:50:10;1.67;;;1.40;;
12687;SDS011;6408;59.388;17.798;2022-12-29T09:52:44;1.90;;;1.40;;
12687;SDS011;6408;59.388;17.798;2022-12-29T09:55:15;2.50;;;1.40;;
12687;SDS011;6408;59.388;17.798;2022-12-29T09:57:46;2.93;;;1.47;;
12687;SDS011;6408;59.388;17.798;2022-12-29T10:00:17;1.70;;;1.30;;
12687;SDS011;6408;59.388;17.798;2022-12-29T10:02:48;1.57;;;1.47;;
12687;SDS011;6408;59.388;17.798;2022-12-29T10:05:20;2.07;;;1.53;;
12687;SDS011;6408;59.388;17.798;2022-12-29T10:08:01;4.50;;;1.70;;
12687;SDS011;6408;59.388;17.798;2022-12-29T10:10:43;3.67;;;1.87;;
12687;SDS011;6408;59.388;17.798;2022-12-29T10:13:21;3.80;;;2.00;;
12687;SDS011;6408;59.388;17.798;2022-12-29T10:16:02;2.13;;;1.90;;
12687;SDS011;6408;59.388;17.798;2022-12-29T10:18:43;3.77;;;2.03;;
12687;SDS011;6408;59.388;17.798;2022-12-29T10:21:30;5.10;;;1.90;;
12687;SDS011;6408;59.388;17.798;2022-12-29T10:24:12;4.90;;;2.40;;
12687;SDS011;6408;59.388;17.798;2022-12-29T10:26:40;3.57;;;1.87;;
12687;SDS011;6408;59.388;17.798;2022-12-29T10:29:12;3.17;;;1.80;;
12687;SDS011;6408;59.388;17.798;2022-12-29T10:31:43;3.50;;;2.07;;
12687;SDS011;6408;59.388;17.798;2022-12-29T10:34:16;2.53;;;1.87;;
12687;SDS011;6408;59.388;17.798;2022-12-29T10:36:49;3.20;;;1.93;;
12687;SDS011;6408;59.388;17.798;2022-12-29T10:39:22;2.00;;;1.60;;
12687;SDS011;6408;59.388;17.798;2022-12-29T10:41:57;4.53;;;2.00;;
12687;SDS011;6408;59.388;17.798;2022-12-29T10:44:31;1.97;;;1.70;;
12687;SDS011;6408;59.388;17.798;2022-12-29T10:47:00;2.10;;;1.90;;
12687;SDS011;6408;59.388;17.798;2022-12-29T10:49:31;2.27;;;1.70;;
12687;SDS011;6408;59.388;17.798;2022-12-29T10:52:03;2.37;;;1.90;;
12687;SDS011;6408;59.388;17.798;2022-12-29T10:54:36;1.70;;;1.60;;
12687;SDS011;6408;59.388;17.798;2022-12-29T10:57:09;2.57;;;1.40;;
12687;SDS011;6408;59.388;17.798;2022-12-29T10:59:43;2.93;;;1.57;;
12687;SDS011;6408;59.388;17.798;2022-12-29T11:02:19;1.50;;;1.33;;
12687;SDS011;6408;59.388;17.798;2022-12-29T11:05:10;1.30;;;1.20;;
12687;SDS011;6408;59.388;17.798;2022-12-29T11:07:42;2.33;;;1.30;;
12687;SDS011;6408;59.388;17.798;2022-12-29T11:10:19;1.10;;;1.00;;
12687;SDS011;6408;59.388;17.798;2022-12-29T11:12:56;1.40;;;1.00;;
12687;SDS011;6408;59.388;17.798;2022-12-29T11:15:27;1.10;;;1.00;;
12687;SDS011;6408;59.388;17.798;2022-12-29T11:18:04;1.20;;;1.10;;
12687;SDS011;6408;59.388;17.798;2022-12-29T11:20:43;1.40;;;1.30;;
12687;SDS011;6408;59.388;17.798;2022-12-29T11:31:51;1.20;;;1.10;;
12687;SDS011;6408;59.388;17.798;2022-12-29T11:34:21;1.43;;;1.10;;
12687;SDS011;6408;59.388;17.798;2022-12-29T11:36:50;0.80;;;0.80;;
12687;SDS011;6408;59.388;17.798;2022-12-29T11:39:25;0.97;;;0.90;;
12687;SDS011;6408;59.388;17.798;2022-12-29T11:41:57;1.30;;;1.20;;
12687;SDS011;6408;59.388;17.798;2022-12-29T11:44:27;1.60;;;1.20;;
12687;SDS011;6408;59.388;17.798;2022-12-29T11:47:01;2.07;;;1.30;;
12687;SDS011;6408;59.388;17.798;2022-12-29T11:49:29;1.50;;;1.10;;
12687;SDS011;6408;59.388;17.798;2022-12-29T11:51:57;1.87;;;1.67;;
12687;SDS011;6408;59.388;17.798;2022-12-29T11:54:25;1.53;;;1.23;;
12687;SDS011;6408;59.388;17.798;2022-12-29T11:56:58;2.63;;;1.80;;
12687;SDS011;6408;59.388;17.798;2022-12-29T11:59:39;1.67;;;1.53;;
12687;SDS011;6408;59.388;17.798;2022-12-29T12:05:03;1.73;;;1.57;;
12687;SDS011;6408;59.388;17.798;2022-12-29T12:07:40;1.73;;;1.63;;
12687;SDS011;6408;59.388;17.798;2022-12-29T12:10:12;2.17;;;1.97;;
12687;SDS011;6408;59.388;17.798;2022-12-29T12:12:53;2.67;;;2.47;;
12687;SDS011;6408;59.388;17.798;2022-12-29T12:15:27;2.53;;;2.27;;
12687;SDS011;6408;59.388;17.798;2022-12-29T12:18:00;3.20;;;2.70;;
12687;SDS011;6408;59.388;17.798;2022-12-29T12:20:38;2.83;;;2.50;;
12687;SDS011;6408;59.388;17.798;2022-12-29T12:23:19;3.90;;;2.70;;
12687;SDS011;6408;59.388;17.798;2022-12-29T12:25:59;3.27;;;2.57;;
12687;SDS011;6408;59.388;17.798;2022-12-29T12:28:36;3.63;;;3.13;;
12687;SDS011;6408;59.388;17.798;2022-12-29T12:31:13;6.03;;;3.20;;
12687;SDS011;6408;59.388;17.798;2022-12-29T12:33:46;3.97;;;2.90;;
12687;SDS011;6408;59.388;17.798;2022-12-29T12:36:23;3.60;;;2.60;;
12687;SDS011;6408;59.388;17.798;2022-12-29T12:39:10;3.70;;;3.30;;
12687;SDS011;6408;59.388;17.798;2022-12-29T12:41:46;3.30;;;2.73;;
12687;SDS011;6408;59.388;17.798;2022-12-29T12:44:24;3.53;;;2.77;;
12687;SDS011;6408;59.388;17.798;2022-12-29T12:47:09;4.30;;;2.90;;
12687;SDS011;6408;59.388;17.798;2022-12-29T12:50:00;3.53;;;2.80;;
12687;SDS011;6408;59.388;17.798;2022-12-29T12:52:40;2.80;;;2.30;;
12687;SDS011;6408;59.388;17.798;2022-12-29T12:55:27;2.73;;;2.47;;
12687;SDS011;6408;59.388;17.798;2022-12-29T12:58:04;2.87;;;2.43;;
12687;SDS011;6408;59.388;17.798;2022-12-29T13:00:45;2.70;;;2.10;;
12687;SDS011;6408;59.388;17.798;2022-12-29T13:03:22;3.80;;;2.33;;
12687;SDS011;6408;59.388;17.798;2022-12-29T13:06:10;2.40;;;2.00;;
12687;SDS011;6408;59.388;17.798;2022-12-29T13:11:51;2.03;;;1.83;;
12687;SDS011;6408;59.388;17.798;2022-12-29T13:14:30;1.90;;;1.77;;
12687;SDS011;6408;59.388;17.798;2022-12-29T13:17:08;2.53;;;1.60;;
12687;SDS011;6408;59.388;17.798;2022-12-29T13:19:43;1.43;;;1.33;;
12687;SDS011;6408;59.388;17.798;2022-12-29T13:22:18;1.73;;;1.63;;
12687;SDS011;6408;59.388;17.798;2022-12-29T13:24:55;2.23;;;1.40;;
12687;SDS011;6408;59.388;17.798;2022-12-29T13:27:36;1.77;;;1.67;;
12687;SDS011;6408;59.388;17.798;2022-12-29T13:30:12;1.77;;;1.50;;
12687;SDS011;6408;59.388;17.798;2022-12-29T13:32:48;1.70;;;1.60;;
12687;SDS011;6408;59.388;17.798;2022-12-29T13:35:32;1.50;;;1.40;;
12687;SDS011;6408;59.388;17.798;2022-12-29T13:38:12;3.30;;;1.60;;
12687;SDS011;6408;59.388;17.798;2022-12-29T13:40:44;1.57;;;1.47;;
12687;SDS011;6408;59.388;17.798;2022-12-29T13:43:13;1.40;;;1.10;;
12687;SDS011;6408;59.388;17.798;2022-12-29T13:45:44;1.20;;;1.10;;
12687;SDS011;6408;59.388;17.798;2022-12-29T13:48:18;1.87;;;1.20;;
12687;SDS011;6408;59.388;17.798;2022-12-29T13:50:51;1.50;;;1.23;;
12687;SDS011;6408;59.388;17.798;2022-12-29T13:53:24;1.50;;;1.40;;
12687;SDS011;6408;59.388;17.798;2022-12-29T13:56:03;1.37;;;1.27;;
12687;SDS011;6408;59.388;17.798;2022-12-29T13:58:35;1.70;;;1.60;;
12687;SDS011;6408;59.388;17.798;2022-12-29T14:01:14;2.27;;;1.63;;
12687;SDS011;6408;59.388;17.798;2022-12-29T14:03:49;1.83;;;1.20;;
12687;SDS011;6408;59.388;17.798;2022-12-29T14:06:22;1.33;;;1.20;;
12687;SDS011;6408;59.388;17.798;2022-12-29T14:08:52;1.40;;;1.00;;
12687;SDS011;6408;59.388;17.798;2022-12-29T14:11:23;0.93;;;0.93;;
12687;SDS011;6408;59.388;17.798;2022-12-29T14:13:56;1.20;;;1.10;;
12687;SDS011;6408;59.388;17.798;2022-12-29T14:16:29;1.10;;;1.00;;
12687;SDS011;6408;59.388;17.798;2022-12-29T14:19:05;1.20;;;1.10;;
12687;SDS011;6408;59.388;17.798;2022-12-29T14:21:38;1.20;;;1.10;;
12687;SDS011;6408;59.388;17.798;2022-12-29T14:33:26;1.23;;;1.13;;
12687;SDS011;6408;59.388;17.798;2022-12-29T14:35:57;1.37;;;1.27;;
12687;SDS011;6408;59.388;17.798;2022-12-29T14:38:46;1.80;;;1.47;;
12687;SDS011;6408;59.388;17.798;2022-12-29T14:41:27;1.90;;;1.50;;
12687;SDS011;6408;59.388;17.798;2022-12-29T14:43:58;1.70;;;1.60;;
12687;SDS011;6408;59.388;17.798;2022-12-29T14:46:42;2.20;;;1.87;;
12687;SDS011;6408;59.388;17.798;2022-12-29T14:49:22;2.97;;;1.90;;
12687;SDS011;6408;59.388;17.798;2022-12-29T14:51:54;4.27;;;2.23;;
12687;SDS011;6408;59.388;17.798;2022-12-29T14:54:43;3.80;;;2.40;;
12687;SDS011;6408;59.388;17.798;2022-12-29T14:57:18;3.23;;;2.40;;
12687;SDS011;6408;59.388;17.798;2022-12-29T15:00:00;4.37;;;2.97;;
12687;SDS011;6408;59.388;17.798;2022-12-29T15:02:33;3.10;;;2.80;;
12687;SDS011;6408;59.388;17.798;2022-12-29T15:05:05;4.27;;;2.83;;
12687;SDS011;6408;59.388;17.798;2022-12-29T15:07:50;4.97;;;3.20;;
12687;SDS011;6408;59.388;17.798;2022-12-29T15:10:19;4.57;;;3.60;;
12687;SDS011;6408;59.388;17.798;2022-12-29T15:12:49;5.60;;;3.47;;
12687;SDS011;6408;59.388;17.798;2022-12-29T15:15:21;4.97;;;3.80;;
12687;SDS011;6408;59.388;17.798;2022-12-29T15:17:50;4.60;;;3.53;;
12687;SDS011;6408;59.388;17.798;2022-12-29T15:20:22;6.90;;;3.63;;
12687;SDS011;6408;59.388;17.798;2022-12-29T15:22:54;4.83;;;3.47;;
12687;SDS011;6408;59.388;17.798;2022-12-29T15:25:23;5.73;;;3.40;;
12687;SDS011;6408;59.388;17.798;2022-12-29T15:27:52;4.70;;;3.50;;
12687;SDS011;6408;59.388;17.798;2022-12-29T15:30:22;4.43;;;3.07;;
12687;SDS011;6408;59.388;17.798;2022-12-29T15:32:50;3.33;;;2.80;;
12687;SDS011;6408;59.388;17.798;2022-12-29T15:35:22;3.53;;;2.77;;
12687;SDS011;6408;59.388;17.798;2022-12-29T15:37:54;2.90;;;2.43;;
12687;SDS011;6408;59.388;17.798;2022-12-29T15:40:27;2.50;;;2.27;;